createdAt,value
2022-12-08T00:00:21.205Z,18.96
2022-12-08T00:01:26.340Z,18.96
2022-12-08T00:02:27.965Z,18.96
2022-12-08T00:03:29.649Z,18.93
2022-12-08T00:04:51.110Z,18.97
2022-12-08T00:06:11.587Z,18.96
2022-12-08T00:07:31.339Z,18.99
2022-12-08T00:09:05.306Z,18.96
2022-12-08T00:10:39.555Z,19.00
2022-12-08T00:11:28.895Z,18.97
2022-12-08T00:12:30.248Z,18.98
2022-12-08T00:13:31.902Z,19.07
2022-12-08T00:14:35.949Z,19.08
2022-12-08T00:15:37.341Z,19.06
2022-12-08T00:16:38.814Z,19.01
2022-12-08T00:17:40.335Z,19.09
2022-12-08T00:18:41.765Z,19.02
2022-12-08T00:19:44.220Z,19.13
2022-12-08T00:20:45.632Z,19.06
2022-12-08T00:21:47.501Z,19.12
2022-12-08T00:22:48.847Z,19.07
2022-12-08T00:23:50.229Z,19.12
2022-12-08T00:24:51.640Z,19.12
2022-12-08T00:25:53.212Z,19.11
2022-12-08T00:26:54.689Z,19.14
2022-12-08T00:27:56.103Z,19.15
2022-12-08T00:28:57.770Z,19.08
2022-12-08T00:29:59.210Z,19.16
2022-12-08T00:31:06.648Z,19.13
2022-12-08T00:32:08.260Z,19.15
2022-12-08T00:33:10.413Z,19.18
2022-12-08T00:34:13.776Z,19.16
2022-12-08T00:35:18.287Z,19.18
2022-12-08T00:36:19.850Z,19.16
2022-12-08T00:37:21.194Z,19.13
2022-12-08T00:38:22.637Z,19.06
2022-12-08T00:39:24.154Z,19.07
2022-12-08T00:40:30.052Z,19.12
2022-12-08T00:41:50.016Z,19.15
2022-12-08T00:42:51.622Z,19.13
2022-12-08T00:43:53.033Z,19.12
2022-12-08T00:44:54.563Z,19.16
2022-12-08T00:45:56.528Z,19.12
2022-12-08T00:46:58.083Z,19.06
2022-12-08T00:47:59.598Z,19.11
2022-12-08T00:49:01.007Z,19.12
2022-12-08T00:50:02.781Z,19.09
2022-12-08T00:51:04.557Z,19.06
2022-12-08T00:52:06.016Z,19.08
2022-12-08T00:53:07.444Z,19.03
2022-12-08T00:54:09.056Z,19.09
2022-12-08T00:55:10.426Z,19.09
2022-12-08T00:56:11.809Z,19.03
2022-12-08T00:57:13.381Z,19.12
2022-12-08T00:58:17.668Z,19.14
2022-12-08T00:59:19.239Z,19.13
2022-12-08T01:00:20.834Z,19.06
2022-12-08T01:01:22.459Z,19.13
2022-12-08T01:02:24.905Z,19.09
2022-12-08T01:03:26.584Z,19.09
2022-12-08T01:04:28.032Z,19.07
2022-12-08T01:05:29.431Z,19.13
2022-12-08T01:06:31.374Z,19.06
2022-12-08T01:07:32.765Z,19.12
2022-12-08T01:08:36.313Z,19.13
2022-12-08T01:09:38.037Z,19.07
2022-12-08T01:10:39.787Z,19.12
2022-12-08T01:11:41.448Z,19.09
2022-12-08T01:12:43.019Z,19.14
2022-12-08T01:13:45.464Z,19.12
2022-12-08T01:14:47.031Z,19.04
2022-12-08T01:15:48.597Z,19.08
2022-12-08T01:16:50.288Z,19.06
2022-12-08T01:17:51.909Z,19.13
2022-12-08T01:18:54.089Z,19.15
2022-12-08T01:19:55.571Z,19.17
2022-12-08T01:21:05.791Z,18.93
2022-12-08T01:22:07.299Z,19.16
2022-12-08T01:23:08.837Z,19.06
2022-12-08T01:24:15.478Z,19.06
2022-12-08T01:25:16.922Z,19.06
2022-12-08T01:26:19.439Z,19.17
2022-12-08T01:27:20.952Z,19.16
2022-12-08T01:28:22.332Z,19.04
2022-12-08T01:29:23.756Z,19.07
2022-12-08T01:30:25.941Z,19.12
2022-12-08T01:31:30.654Z,19.11
2022-12-08T01:32:32.034Z,19.14
2022-12-08T01:33:33.439Z,19.08
2022-12-08T01:34:34.960Z,19.14
2022-12-08T01:35:36.399Z,19.13
2022-12-08T01:36:38.558Z,19.12
2022-12-08T01:37:40.203Z,19.13
2022-12-08T01:38:41.605Z,19.08
2022-12-08T01:39:43.143Z,19.08
2022-12-08T01:40:44.824Z,19.15
2022-12-08T01:41:47.615Z,19.06
2022-12-08T01:42:50.119Z,19.10
2022-12-08T01:43:59.855Z,19.12
2022-12-08T01:45:04.933Z,19.13
2022-12-08T01:46:06.495Z,19.04
2022-12-08T01:47:08.797Z,19.09
2022-12-08T01:48:30.439Z,19.14
2022-12-08T01:49:39.209Z,19.13
2022-12-08T01:50:42.584Z,19.14
2022-12-08T01:51:46.650Z,19.15
2022-12-08T01:53:04.879Z,19.07
2022-12-08T01:54:07.816Z,19.18
2022-12-08T01:55:17.532Z,19.12
2022-12-08T01:56:28.316Z,19.16
2022-12-08T01:57:36.459Z,19.16
2022-12-08T01:58:41.580Z,19.11
2022-12-08T01:59:51.103Z,19.12
2022-12-08T02:00:52.614Z,19.12
2022-12-08T02:01:54.663Z,19.15
2022-12-08T02:03:02.832Z,19.11
2022-12-08T02:04:05.302Z,19.13
2022-12-08T02:05:07.333Z,19.06
2022-12-08T02:06:09.844Z,19.14
2022-12-08T02:07:14.044Z,19.05
2022-12-08T02:08:15.873Z,19.11
2022-12-08T02:09:18.132Z,19.14
2022-12-08T02:10:21.978Z,19.16
2022-12-08T02:11:23.538Z,19.13
2022-12-08T02:12:25.320Z,19.07
2022-12-08T02:13:27.093Z,19.13
2022-12-08T02:14:28.518Z,19.09
2022-12-08T02:15:54.596Z,19.15
2022-12-08T02:17:12.745Z,19.14
2022-12-08T02:18:42.683Z,19.13
2022-12-08T02:19:47.040Z,19.14
2022-12-08T02:20:52.966Z,19.11
2022-12-08T02:22:20.467Z,19.13
2022-12-08T02:23:33.723Z,19.12
2022-12-08T02:24:40.731Z,19.07
2022-12-08T02:25:54.274Z,19.08
2022-12-08T02:27:10.519Z,19.11
2022-12-08T02:28:48.267Z,19.06
2022-12-08T02:30:06.142Z,19.13
2022-12-08T02:31:19.903Z,19.15
2022-12-08T02:33:02.677Z,19.15
2022-12-08T02:34:36.148Z,19.15
2022-12-08T02:35:56.084Z,19.14
2022-12-08T02:37:05.705Z,19.13
2022-12-08T02:38:28.307Z,19.15
2022-12-08T02:39:44.390Z,19.14
2022-12-08T02:41:01.797Z,19.13
2022-12-08T02:42:09.179Z,19.15
2022-12-08T02:43:17.147Z,19.17
2022-12-08T02:44:41.435Z,18.94
2022-12-08T02:45:52.594Z,19.09
2022-12-08T02:47:26.987Z,19.11
2022-12-08T02:48:29.309Z,19.15
2022-12-08T02:49:35.387Z,19.15
2022-12-08T02:50:36.790Z,19.02
2022-12-08T02:51:38.201Z,19.15
2022-12-08T02:52:45.745Z,19.16
2022-12-08T02:53:48.354Z,19.07
2022-12-08T02:55:02.227Z,19.15
2022-12-08T02:56:17.111Z,19.15
2022-12-08T02:57:36.187Z,19.15
2022-12-08T02:59:19.476Z,19.15
2022-12-08T03:00:23.675Z,19.14
2022-12-08T03:01:49.329Z,19.13
2022-12-08T03:03:09.491Z,19.13
2022-12-08T03:04:22.429Z,19.14
2022-12-08T03:05:32.685Z,19.14
2022-12-08T03:06:38.516Z,19.11
2022-12-08T03:07:55.904Z,19.13
2022-12-08T03:09:10.860Z,19.09
2022-12-08T03:10:29.860Z,19.12
2022-12-08T03:11:40.666Z,19.11
2022-12-08T03:12:56.736Z,19.13
2022-12-08T03:14:01.640Z,19.13
2022-12-08T03:15:09.578Z,19.13
2022-12-08T03:16:14.944Z,19.12
2022-12-08T03:17:20.230Z,19.05
2022-12-08T03:18:26.519Z,19.09
2022-12-08T03:19:34.467Z,19.07
2022-12-08T03:20:36.112Z,19.08
2022-12-08T03:21:39.523Z,19.07
2022-12-08T03:22:42.060Z,19.10
2022-12-08T03:23:46.503Z,19.06
2022-12-08T03:24:49.321Z,19.05
2022-12-08T03:25:58.472Z,19.04
2022-12-08T03:27:04.049Z,19.06
2022-12-08T03:28:06.247Z,19.04
2022-12-08T03:29:08.023Z,19.09
2022-12-08T03:30:10.493Z,19.08
2022-12-08T03:31:14.505Z,19.12
2022-12-08T03:33:00.488Z,19.10
2022-12-08T03:34:03.073Z,19.06
2022-12-08T03:35:09.533Z,19.11
2022-12-08T03:36:12.927Z,19.12
2022-12-08T03:37:14.966Z,19.11
2022-12-08T03:38:21.219Z,19.14
2022-12-08T03:39:22.558Z,19.13
2022-12-08T03:40:24.060Z,19.15
2022-12-08T03:41:25.564Z,19.08
2022-12-08T03:42:27.012Z,19.13
2022-12-08T03:43:28.491Z,19.09
2022-12-08T03:44:30.077Z,19.12
2022-12-08T03:45:31.693Z,19.09
2022-12-08T03:46:33.053Z,19.09
2022-12-08T03:47:34.397Z,19.05
2022-12-08T03:48:35.731Z,19.10
2022-12-08T03:49:40.032Z,19.09
2022-12-08T03:50:41.398Z,19.11
2022-12-08T03:51:42.853Z,19.11
2022-12-08T03:52:44.222Z,19.09
2022-12-08T03:53:46.398Z,19.11
2022-12-08T03:54:48.296Z,19.02
2022-12-08T03:55:49.680Z,19.07
2022-12-08T03:56:51.139Z,19.06
2022-12-08T03:57:52.690Z,19.08
2022-12-08T03:58:54.841Z,19.07
2022-12-08T03:59:56.185Z,19.08
2022-12-08T04:00:57.541Z,19.03
2022-12-08T04:02:02.393Z,19.09
2022-12-08T04:03:04.576Z,19.07
2022-12-08T04:04:06.156Z,19.02
2022-12-08T04:05:07.982Z,19.11
2022-12-08T04:06:09.371Z,19.08
2022-12-08T04:07:10.909Z,19.06
2022-12-08T04:08:12.323Z,19.05
2022-12-08T04:09:14.724Z,19.05
2022-12-08T04:10:16.407Z,19.07
2022-12-08T04:11:21.585Z,19.01
2022-12-08T04:12:23.076Z,19.08
2022-12-08T04:13:24.604Z,19.06
2022-12-08T04:14:25.981Z,19.05
2022-12-08T04:15:27.528Z,18.99
2022-12-08T04:16:29.172Z,19.06
2022-12-08T04:17:30.612Z,19.07
2022-12-08T04:18:32.680Z,19.09
2022-12-08T04:19:34.154Z,19.08
2022-12-08T04:20:40.016Z,19.04
2022-12-08T04:21:41.351Z,19.08
2022-12-08T04:22:42.788Z,19.07
2022-12-08T04:23:48.409Z,19.07
2022-12-08T04:24:49.837Z,19.08
2022-12-08T04:25:52.578Z,19.08
2022-12-08T04:26:54.044Z,19.07
2022-12-08T04:27:56.424Z,18.99
2022-12-08T04:28:57.894Z,19.04
2022-12-08T04:29:59.246Z,19.06
2022-12-08T04:31:00.908Z,19.07
2022-12-08T04:32:02.353Z,19.05
2022-12-08T04:33:03.769Z,19.07
2022-12-08T04:34:05.327Z,19.07
2022-12-08T04:35:06.912Z,19.04
2022-12-08T04:36:08.880Z,19.06
2022-12-08T04:37:10.230Z,19.06
2022-12-08T04:38:11.829Z,19.07
2022-12-08T04:39:13.321Z,19.03
2022-12-08T04:40:14.872Z,19.05
2022-12-08T04:41:16.345Z,19.07
2022-12-08T04:42:17.756Z,19.06
2022-12-08T04:43:19.178Z,18.99
2022-12-08T04:44:20.595Z,18.96
2022-12-08T04:45:22.132Z,19.06
2022-12-08T04:46:23.585Z,19.05
2022-12-08T04:47:25.152Z,19.05
2022-12-08T04:48:26.558Z,19.05
2022-12-08T04:49:28.027Z,19.04
2022-12-08T04:50:29.384Z,19.06
2022-12-08T04:51:30.730Z,19.02
2022-12-08T04:54:01.122Z,19.04
2022-12-08T04:55:03.404Z,19.03
2022-12-08T04:56:05.255Z,19.05
2022-12-08T04:57:09.547Z,19.06
2022-12-08T04:58:16.635Z,19.06
2022-12-08T04:59:18.076Z,19.04
2022-12-08T05:00:19.759Z,19.07
2022-12-08T05:01:21.220Z,19.08
2022-12-08T05:02:22.868Z,19.00
2022-12-08T05:03:28.465Z,19.09
2022-12-08T05:04:33.962Z,19.10
2022-12-08T05:05:35.605Z,19.11
2022-12-08T05:06:37.033Z,19.10
2022-12-08T05:07:38.620Z,19.08
2022-12-08T05:08:41.126Z,19.07
2022-12-08T05:09:42.971Z,18.93
2022-12-08T05:10:44.378Z,18.99
2022-12-08T05:11:49.144Z,18.99
2022-12-08T05:12:50.776Z,18.94
2022-12-08T05:13:52.144Z,18.90
2022-12-08T05:14:53.485Z,18.88
2022-12-08T05:15:54.889Z,18.81
2022-12-08T05:16:56.596Z,18.73
2022-12-08T05:17:58.128Z,18.77
2022-12-08T05:18:59.546Z,18.80
2022-12-08T05:20:01.412Z,18.77
2022-12-08T05:21:04.374Z,18.76
2022-12-08T05:22:05.987Z,18.68
2022-12-08T05:23:07.371Z,18.75
2022-12-08T05:24:09.380Z,18.68
2022-12-08T05:25:10.983Z,18.76
2022-12-08T05:26:12.415Z,18.73
2022-12-08T05:27:13.770Z,18.73
2022-12-08T05:28:40.330Z,18.77
2022-12-08T05:29:36.560Z,18.75
2022-12-08T05:30:37.896Z,18.78
2022-12-08T05:31:39.488Z,18.68
2022-12-08T05:32:41.069Z,18.76
2022-12-08T05:33:43.590Z,18.77
2022-12-08T05:34:44.994Z,18.79
2022-12-08T05:35:46.451Z,18.71
2022-12-08T05:36:48.156Z,18.80
2022-12-08T05:37:49.554Z,18.79
2022-12-08T05:38:50.983Z,18.84
2022-12-08T05:39:52.428Z,18.81
2022-12-08T05:40:53.976Z,18.78
2022-12-08T05:41:55.397Z,18.84
2022-12-08T05:42:56.776Z,18.81
2022-12-08T05:43:58.197Z,18.92
2022-12-08T05:44:59.776Z,18.97
2022-12-08T05:46:01.602Z,19.03
2022-12-08T05:47:03.248Z,19.09
2022-12-08T05:48:04.903Z,19.11
2022-12-08T05:49:06.270Z,19.13
2022-12-08T05:50:08.076Z,19.13
2022-12-08T05:51:24.208Z,19.09
2022-12-08T05:52:25.633Z,19.16
2022-12-08T05:53:27.188Z,19.15
2022-12-08T05:54:28.700Z,19.17
2022-12-08T05:55:30.143Z,19.17
2022-12-08T05:56:35.076Z,19.20
2022-12-08T05:57:36.463Z,19.12
2022-12-08T05:58:37.832Z,19.16
2022-12-08T05:59:39.383Z,19.21
2022-12-08T06:00:41.677Z,19.18
2022-12-08T06:01:43.208Z,19.14
2022-12-08T06:02:48.614Z,19.15
2022-12-08T06:03:50.829Z,19.17
2022-12-08T06:04:52.264Z,19.20
2022-12-08T06:05:53.682Z,19.23
2022-12-08T06:06:55.821Z,19.24
2022-12-08T06:07:57.298Z,19.22
2022-12-08T06:08:58.765Z,19.23
2022-12-08T06:10:00.204Z,19.19
2022-12-08T06:11:01.738Z,19.13
2022-12-08T06:12:03.889Z,19.24
2022-12-08T06:13:05.405Z,19.16
2022-12-08T06:14:11.992Z,19.25
2022-12-08T06:15:14.736Z,19.21
2022-12-08T06:16:17.079Z,19.18
2022-12-08T06:17:18.524Z,19.08
2022-12-08T06:18:22.833Z,19.14
2022-12-08T06:19:24.257Z,19.22
2022-12-08T06:20:25.766Z,19.25
2022-12-08T06:21:27.119Z,19.23
2022-12-08T06:22:29.110Z,19.25
2022-12-08T06:23:30.806Z,19.24
2022-12-08T06:24:32.177Z,19.19
2022-12-08T06:25:33.504Z,19.13
2022-12-08T06:26:36.059Z,19.06
2022-12-08T06:27:40.289Z,19.09
2022-12-08T06:28:42.904Z,19.01
2022-12-08T06:29:44.356Z,19.03
2022-12-08T06:30:45.916Z,19.14
2022-12-08T06:31:47.462Z,18.98
2022-12-08T06:32:49.040Z,19.16
2022-12-08T06:33:50.458Z,19.19
2022-12-08T06:34:52.107Z,19.17
2022-12-08T06:35:53.508Z,19.11
2022-12-08T06:36:54.943Z,19.13
2022-12-08T06:37:56.818Z,19.15
2022-12-08T06:38:58.501Z,19.14
2022-12-08T06:39:59.989Z,19.16
2022-12-08T06:41:01.687Z,19.17
2022-12-08T06:42:22.413Z,19.08
2022-12-08T06:43:24.851Z,19.10
2022-12-08T06:44:29.863Z,19.00
2022-12-08T06:45:31.357Z,19.02
2022-12-08T06:46:32.838Z,19.06
2022-12-08T06:47:34.855Z,19.18
2022-12-08T06:48:36.215Z,19.20
2022-12-08T06:49:41.627Z,19.23
2022-12-08T06:50:43.761Z,19.22
2022-12-08T06:51:45.219Z,19.28
2022-12-08T06:52:57.040Z,19.18
2022-12-08T06:54:04.400Z,19.28
2022-12-08T06:55:06.092Z,19.30
2022-12-08T06:56:08.213Z,19.30
2022-12-08T06:57:09.739Z,19.29
2022-12-08T06:58:13.039Z,19.29
2022-12-08T06:59:14.469Z,19.25
2022-12-08T07:00:16.470Z,19.27
2022-12-08T07:01:18.010Z,19.23
2022-12-08T07:02:23.005Z,19.16
2022-12-08T07:03:24.414Z,19.15
2022-12-08T07:04:25.849Z,19.25
2022-12-08T07:05:27.275Z,19.23
2022-12-08T07:06:28.711Z,19.13
2022-12-08T07:07:30.152Z,19.17
2022-12-08T07:08:33.399Z,19.13
2022-12-08T07:09:35.005Z,19.20
2022-12-08T07:10:37.159Z,19.20
2022-12-08T07:11:39.411Z,19.19
2022-12-08T07:12:40.852Z,19.18
2022-12-08T07:13:45.113Z,19.16
2022-12-08T07:14:46.494Z,19.12
2022-12-08T07:15:47.866Z,19.10
2022-12-08T07:16:49.439Z,19.17
2022-12-08T07:17:54.962Z,19.15
2022-12-08T07:19:00.953Z,19.11
2022-12-08T07:20:02.794Z,19.15
2022-12-08T07:21:06.396Z,19.12
2022-12-08T07:22:07.971Z,19.08
2022-12-08T07:23:09.521Z,18.99
2022-12-08T07:24:11.505Z,19.06
2022-12-08T07:25:13.044Z,19.00
2022-12-08T07:26:14.707Z,19.04
2022-12-08T07:27:16.074Z,19.08
2022-12-08T07:28:17.497Z,19.05
2022-12-08T07:29:24.633Z,19.08
2022-12-08T07:30:27.710Z,19.07
2022-12-08T07:31:29.372Z,19.00
2022-12-08T07:32:30.738Z,19.08
2022-12-08T07:33:33.447Z,19.01
2022-12-08T07:34:35.064Z,19.03
2022-12-08T07:35:36.608Z,19.02
2022-12-08T07:36:38.140Z,18.95
2022-12-08T07:37:39.691Z,19.06
2022-12-08T07:38:41.885Z,19.04
2022-12-08T07:39:43.278Z,19.07
2022-12-08T07:40:44.663Z,19.06
2022-12-08T07:41:46.136Z,18.98
2022-12-08T07:42:47.519Z,19.05
2022-12-08T07:43:51.760Z,19.07
2022-12-08T07:44:53.192Z,19.06
2022-12-08T07:45:54.654Z,19.00
2022-12-08T07:46:56.333Z,19.02
2022-12-08T07:47:57.741Z,18.97
2022-12-08T07:49:00.085Z,19.06
2022-12-08T07:50:01.909Z,19.05
2022-12-08T07:51:05.429Z,19.09
2022-12-08T07:52:06.845Z,19.07
2022-12-08T07:53:08.691Z,19.12
2022-12-08T07:54:13.522Z,19.13
2022-12-08T07:55:15.196Z,19.14
2022-12-08T07:56:16.810Z,19.13
2022-12-08T07:57:18.385Z,19.12
2022-12-08T07:58:19.830Z,19.14
2022-12-08T07:59:21.237Z,19.15
2022-12-08T08:00:23.202Z,19.16
2022-12-08T08:01:27.332Z,19.19
2022-12-08T08:02:28.961Z,19.19
2022-12-08T08:03:30.651Z,19.19
2022-12-08T08:04:32.065Z,19.20
2022-12-08T08:05:33.490Z,19.21
2022-12-08T08:06:36.946Z,19.16
2022-12-08T08:07:41.941Z,19.23
2022-12-08T08:08:43.556Z,19.25
2022-12-08T08:09:45.684Z,19.19
2022-12-08T08:10:47.560Z,19.25
2022-12-08T08:12:14.275Z,19.29
2022-12-08T08:13:10.264Z,19.24
2022-12-08T08:14:12.293Z,19.23
2022-12-08T08:15:13.926Z,19.24
2022-12-08T08:16:18.201Z,19.28
2022-12-08T08:17:19.798Z,19.27
2022-12-08T08:18:21.592Z,19.31
2022-12-08T08:19:23.135Z,19.35
2022-12-08T08:20:24.505Z,19.25
2022-12-08T08:21:45.165Z,19.35
2022-12-08T08:22:49.633Z,19.32
2022-12-08T08:23:51.144Z,19.35
2022-12-08T08:24:53.508Z,19.32
2022-12-08T08:25:54.932Z,19.36
2022-12-08T08:26:56.462Z,19.38
2022-12-08T08:27:57.952Z,19.39
2022-12-08T08:28:59.442Z,19.33
2022-12-08T08:30:01.132Z,19.39
2022-12-08T08:31:02.898Z,19.40
2022-12-08T08:32:04.429Z,19.40
2022-12-08T08:33:05.839Z,19.39
2022-12-08T08:34:07.314Z,19.41
2022-12-08T08:35:09.315Z,19.39
2022-12-08T08:36:11.518Z,19.38
2022-12-08T08:37:13.004Z,19.42
2022-12-08T08:38:14.588Z,19.39
2022-12-08T08:39:16.110Z,19.37
2022-12-08T08:40:18.058Z,19.46
2022-12-08T08:41:19.455Z,19.47
2022-12-08T08:42:20.961Z,19.45
2022-12-08T08:43:37.897Z,19.29
2022-12-08T08:44:40.028Z,19.52
2022-12-08T08:45:41.429Z,19.52
2022-12-08T08:46:43.090Z,19.53
2022-12-08T08:47:44.645Z,19.46
2022-12-08T08:48:46.184Z,19.51
2022-12-08T08:49:47.777Z,19.52
2022-12-08T08:50:49.177Z,19.50
2022-12-08T08:51:51.127Z,19.54
2022-12-08T08:52:52.813Z,19.58
2022-12-08T08:53:54.208Z,19.61
2022-12-08T08:54:55.561Z,19.58
2022-12-08T08:55:56.889Z,19.61
2022-12-08T08:57:02.603Z,19.54
2022-12-08T08:58:04.004Z,19.58
2022-12-08T08:59:05.583Z,19.61
2022-12-08T09:00:10.134Z,19.67
2022-12-08T09:01:19.806Z,19.68
2022-12-08T09:02:21.789Z,19.71
2022-12-08T09:03:23.308Z,19.61
2022-12-08T09:04:25.799Z,19.70
2022-12-08T09:05:27.263Z,19.71
2022-12-08T09:06:28.880Z,19.65
2022-12-08T09:07:30.730Z,19.71
2022-12-08T09:08:32.234Z,19.74
2022-12-08T09:09:33.652Z,19.69
2022-12-08T09:10:35.152Z,19.73
2022-12-08T09:11:37.045Z,19.73
2022-12-08T09:12:42.354Z,19.76
2022-12-08T09:13:44.150Z,19.79
2022-12-08T09:14:45.957Z,19.78
2022-12-08T09:15:47.354Z,19.78
2022-12-08T09:16:48.848Z,19.80
2022-12-08T09:17:54.187Z,19.76
2022-12-08T09:18:56.455Z,19.81
2022-12-08T09:19:57.852Z,19.70
2022-12-08T09:21:06.863Z,19.77
2022-12-08T09:22:08.276Z,19.81
2022-12-08T09:23:10.034Z,19.79
2022-12-08T09:24:15.643Z,19.75
2022-12-08T09:25:17.286Z,19.83
2022-12-08T09:26:22.223Z,19.84
2022-12-08T09:27:23.721Z,19.86
2022-12-08T09:28:28.735Z,19.84
2022-12-08T09:29:35.608Z,19.81
2022-12-08T09:30:37.687Z,19.88
2022-12-08T09:31:39.592Z,19.85
2022-12-08T09:32:41.066Z,19.88
2022-12-08T09:33:43.495Z,19.83
2022-12-08T09:34:49.028Z,19.81
2022-12-08T09:35:53.469Z,19.81
2022-12-08T09:36:58.018Z,19.73
2022-12-08T09:37:59.464Z,19.77
2022-12-08T09:39:00.887Z,19.88
2022-12-08T09:40:02.517Z,19.89
2022-12-08T09:41:16.313Z,19.89
2022-12-08T09:42:32.717Z,19.91
2022-12-08T09:43:51.623Z,19.90
2022-12-08T09:45:04.840Z,19.93
2022-12-08T09:46:09.481Z,19.88
2022-12-08T09:47:23.139Z,19.95
2022-12-08T09:48:32.792Z,19.90
2022-12-08T09:49:41.668Z,19.95
2022-12-08T09:50:56.833Z,19.97
2022-12-08T09:51:58.698Z,19.93
2022-12-08T09:53:17.838Z,19.86
2022-12-08T09:54:24.139Z,19.86
2022-12-08T09:55:45.279Z,19.96
2022-12-08T09:56:49.069Z,19.96
2022-12-08T09:58:00.499Z,19.87
2022-12-08T09:59:20.715Z,19.97
2022-12-08T10:00:23.379Z,19.98
2022-12-08T10:01:29.810Z,19.97
2022-12-08T10:02:31.487Z,19.84
2022-12-08T10:03:33.060Z,19.90
2022-12-08T10:04:37.400Z,19.97
2022-12-08T10:05:46.618Z,19.92
2022-12-08T10:06:58.731Z,19.99
2022-12-08T10:08:06.170Z,19.99
2022-12-08T10:09:26.275Z,20.00
2022-12-08T10:10:50.091Z,19.98
2022-12-08T10:12:00.692Z,19.93
2022-12-08T10:13:06.779Z,20.00
2022-12-08T10:14:14.470Z,20.00
2022-12-08T10:15:51.798Z,19.99
2022-12-08T10:17:05.014Z,19.96
2022-12-08T10:18:16.882Z,19.90
2022-12-08T10:19:21.233Z,20.00
2022-12-08T10:20:26.003Z,19.95
2022-12-08T10:21:30.164Z,19.95
2022-12-08T10:22:38.696Z,20.02
2022-12-08T10:23:47.184Z,19.99
2022-12-08T10:25:15.646Z,20.01
2022-12-08T10:26:19.851Z,20.04
2022-12-08T10:27:24.360Z,20.06
2022-12-08T10:28:25.894Z,20.01
2022-12-08T10:29:28.015Z,20.05
2022-12-08T10:30:31.789Z,20.04
2022-12-08T10:31:33.441Z,20.04
2022-12-08T10:32:35.846Z,19.97
2022-12-08T10:33:37.186Z,20.05
2022-12-08T10:34:59.591Z,20.04
2022-12-08T10:36:04.938Z,20.02
2022-12-08T10:37:10.069Z,20.02
2022-12-08T10:38:34.988Z,20.05
2022-12-08T10:39:46.840Z,20.05
2022-12-08T10:40:51.375Z,20.03
2022-12-08T10:41:52.923Z,19.96
2022-12-08T10:42:57.941Z,19.96
2022-12-08T10:44:01.831Z,19.98
2022-12-08T10:45:09.429Z,19.95
2022-12-08T10:46:17.140Z,19.94
2022-12-08T10:47:22.105Z,19.93
2022-12-08T10:48:33.090Z,19.88
2022-12-08T10:49:35.900Z,19.84
2022-12-08T10:50:52.653Z,19.88
2022-12-08T10:51:54.060Z,19.87
2022-12-08T10:53:07.248Z,19.87
2022-12-08T10:54:28.211Z,19.81
2022-12-08T10:55:40.329Z,19.79
2022-12-08T10:56:54.752Z,19.85
2022-12-08T10:57:56.322Z,19.85
2022-12-08T10:59:14.980Z,19.84
2022-12-08T11:00:27.911Z,19.85
2022-12-08T11:01:37.921Z,19.84
2022-12-08T11:02:52.892Z,19.84
2022-12-08T11:03:58.876Z,19.82
2022-12-08T11:05:00.449Z,19.78
2022-12-08T11:06:12.255Z,19.79
2022-12-08T11:07:22.100Z,19.76
2022-12-08T11:08:24.096Z,19.77
2022-12-08T11:09:53.127Z,19.71
2022-12-08T11:10:54.999Z,19.71
2022-12-08T11:12:08.663Z,19.67
2022-12-08T11:13:19.050Z,19.70
2022-12-08T11:14:46.888Z,19.71
2022-12-08T11:15:53.686Z,19.65
2022-12-08T11:17:18.015Z,19.67
2022-12-08T11:18:30.902Z,19.64
2022-12-08T11:19:37.481Z,19.62
2022-12-08T11:20:41.885Z,19.53
2022-12-08T11:21:43.896Z,19.56
2022-12-08T11:22:51.190Z,19.57
2022-12-08T11:23:52.623Z,19.54
2022-12-08T11:25:00.044Z,19.54
2022-12-08T11:26:07.158Z,19.53
2022-12-08T11:27:08.931Z,19.49
2022-12-08T11:28:11.077Z,19.48
2022-12-08T11:29:13.167Z,19.49
2022-12-08T11:30:22.420Z,19.49
2022-12-08T11:31:44.266Z,19.46
2022-12-08T11:32:58.016Z,19.47
2022-12-08T11:34:00.628Z,19.39
2022-12-08T11:35:07.489Z,19.43
2022-12-08T11:36:14.467Z,19.45
2022-12-08T11:37:29.968Z,19.32
2022-12-08T11:38:42.075Z,19.41
2022-12-08T11:39:49.294Z,19.42
2022-12-08T11:40:55.413Z,19.43
2022-12-08T11:41:58.711Z,19.33
2022-12-08T11:43:26.260Z,19.44
2022-12-08T11:44:49.372Z,19.41
2022-12-08T11:45:57.589Z,19.40
2022-12-08T11:47:08.055Z,19.41
2022-12-08T11:48:16.608Z,19.39
2022-12-08T11:49:18.828Z,19.39
2022-12-08T11:50:32.822Z,19.38
2022-12-08T11:52:12.944Z,19.38
2022-12-08T11:53:24.527Z,19.35
2022-12-08T11:54:25.875Z,19.39
2022-12-08T11:55:45.198Z,19.36
2022-12-08T11:56:51.332Z,19.38
2022-12-08T11:57:55.193Z,19.37
2022-12-08T11:59:01.528Z,19.33
2022-12-08T12:00:06.235Z,19.38
2022-12-08T12:01:18.608Z,19.37
2022-12-08T12:02:24.378Z,19.38
2022-12-08T12:03:34.383Z,19.38
2022-12-08T12:04:49.426Z,19.37
2022-12-08T12:06:52.964Z,19.37
2022-12-08T12:07:52.158Z,19.36
2022-12-08T12:09:07.983Z,19.35
2022-12-08T12:10:31.363Z,19.36
2022-12-08T12:12:06.765Z,19.38
2022-12-08T12:13:28.456Z,19.37
2022-12-08T12:14:45.646Z,19.38
2022-12-08T12:15:52.869Z,19.40
2022-12-08T12:16:54.474Z,19.38
2022-12-08T12:17:59.141Z,19.30
2022-12-08T12:19:05.139Z,19.40
2022-12-08T12:20:14.223Z,19.29
2022-12-08T12:21:40.201Z,19.38
2022-12-08T12:22:45.006Z,19.39
2022-12-08T12:23:57.545Z,19.39
2022-12-08T12:24:59.167Z,19.31
2022-12-08T12:26:03.937Z,19.39
2022-12-08T12:27:21.338Z,19.39
2022-12-08T12:28:26.549Z,19.29
2022-12-08T12:29:31.551Z,19.37
2022-12-08T12:31:04.618Z,19.36
2022-12-08T12:32:08.936Z,19.41
2022-12-08T12:33:15.873Z,19.37
2022-12-08T12:34:22.550Z,19.16
2022-12-08T12:35:35.084Z,19.41
2022-12-08T12:37:11.252Z,19.41
2022-12-08T12:38:48.533Z,19.38
2022-12-08T12:39:57.791Z,19.40
2022-12-08T12:41:04.129Z,19.39
2022-12-08T12:42:05.594Z,19.35
2022-12-08T12:43:10.242Z,19.39
2022-12-08T12:44:14.693Z,19.38
2022-12-08T12:45:21.701Z,19.36
2022-12-08T12:46:23.106Z,19.40
2022-12-08T12:47:55.572Z,19.37
2022-12-08T12:49:40.354Z,19.41
2022-12-08T12:50:51.992Z,19.38
2022-12-08T12:51:56.183Z,19.34
2022-12-08T12:53:02.381Z,19.28
2022-12-08T12:54:32.907Z,19.38
2022-12-08T12:55:46.506Z,19.37
2022-12-08T12:57:13.940Z,19.38
2022-12-08T12:58:27.499Z,19.37
2022-12-08T12:59:55.215Z,19.38
2022-12-08T13:01:17.013Z,19.39
2022-12-08T13:02:26.425Z,19.37
2022-12-08T13:03:28.176Z,19.35
2022-12-08T13:04:33.556Z,19.36
2022-12-08T13:05:48.971Z,19.25
2022-12-08T13:06:51.074Z,19.35
2022-12-08T13:08:22.167Z,19.34
2022-12-08T13:09:39.208Z,19.31
2022-12-08T13:10:56.368Z,19.37
2022-12-08T13:12:02.217Z,19.35
2022-12-08T13:13:13.242Z,19.36
2022-12-08T13:14:49.213Z,19.39
2022-12-08T13:15:52.473Z,19.40
2022-12-08T13:16:59.727Z,19.37
2022-12-08T13:18:01.577Z,19.38
2022-12-08T13:19:18.532Z,19.40
2022-12-08T13:20:23.647Z,19.38
2022-12-08T13:21:33.186Z,19.37
2022-12-08T13:22:54.701Z,19.34
2022-12-08T13:24:14.398Z,19.37
2022-12-08T13:25:49.611Z,19.38
2022-12-08T13:27:13.765Z,19.39
2022-12-08T13:28:24.964Z,19.31
2022-12-08T13:29:26.735Z,19.37
2022-12-08T13:30:45.665Z,19.36
2022-12-08T13:31:51.889Z,19.37
2022-12-08T13:33:18.080Z,19.35
2022-12-08T13:34:45.583Z,19.35
2022-12-08T13:36:25.933Z,19.36
2022-12-08T13:37:43.358Z,19.36
2022-12-08T13:38:55.932Z,19.36
2022-12-08T13:40:28.140Z,19.28
2022-12-08T13:41:35.714Z,19.33
2022-12-08T13:42:40.129Z,19.37
2022-12-08T13:44:31.142Z,19.33
2022-12-08T13:45:30.139Z,19.37
2022-12-08T13:47:32.415Z,19.35
2022-12-08T13:50:42.739Z,19.30
2022-12-08T13:57:32.918Z,19.27
2022-12-08T13:58:36.686Z,19.29
2022-12-08T13:59:44.159Z,19.21
2022-12-08T14:01:17.288Z,19.28
2022-12-08T14:02:33.210Z,19.23
2022-12-08T14:04:12.871Z,19.25
2022-12-08T14:05:20.324Z,19.25
2022-12-08T14:06:30.770Z,19.33
2022-12-08T14:07:33.767Z,19.32
2022-12-08T14:08:59.937Z,19.27
2022-12-08T14:09:56.885Z,19.32
2022-12-08T14:11:04.852Z,19.32
2022-12-08T14:12:15.621Z,19.32
2022-12-08T14:13:17.073Z,19.31
2022-12-08T14:14:53.888Z,19.29
2022-12-08T14:15:49.234Z,19.27
2022-12-08T14:16:56.578Z,19.26
2022-12-08T14:17:58.593Z,19.28
2022-12-08T14:19:21.852Z,19.26
2022-12-08T14:20:30.037Z,19.29
2022-12-08T14:21:36.389Z,19.29
2022-12-08T14:22:40.296Z,19.29
2022-12-08T14:23:44.076Z,19.27
2022-12-08T14:24:47.807Z,19.29
2022-12-08T14:25:49.304Z,19.27